sensor_id;sensor_type;location;lat;lon;timestamp;P1;durP1;ratioP1;P2;durP2;ratioP2
53903;SDS011;39812;52.430;16.936;2022-10-03T00:00:18;5.45;;;1.98;;
53903;SDS011;39812;52.430;16.936;2022-10-03T00:03:06;5.15;;;1.65;;
53903;SDS011;39812;52.430;16.936;2022-10-03T00:11:39;10.43;;;2.08;;
53903;SDS011;39812;52.430;16.936;2022-10-03T00:17:35;9.77;;;2.33;;
53903;SDS011;39812;52.430;16.936;2022-10-03T00:23:03;5.57;;;2.20;;
53903;SDS011;39812;52.430;16.936;2022-10-03T00:25:48;11.60;;;2.00;;
53903;SDS011;39812;52.430;16.936;2022-10-03T00:29:14;5.45;;;1.50;;
53903;SDS011;39812;52.430;16.936;2022-10-03T00:31:55;7.15;;;2.38;;
53903;SDS011;39812;52.430;16.936;2022-10-03T00:37:32;4.93;;;1.58;;
53903;SDS011;39812;52.430;16.936;2022-10-03T00:40:21;9.20;;;1.80;;
53903;SDS011;39812;52.430;16.936;2022-10-03T00:48:46;6.65;;;1.65;;
53903;SDS011;39812;52.430;16.936;2022-10-03T00:51:24;4.00;;;1.50;;
53903;SDS011;39812;52.430;16.936;2022-10-03T00:54:16;9.32;;;2.72;;
53903;SDS011;39812;52.430;16.936;2022-10-03T00:56:59;5.65;;;1.42;;
53903;SDS011;39812;52.430;16.936;2022-10-03T01:02:28;4.63;;;1.85;;
53903;SDS011;39812;52.430;16.936;2022-10-03T01:10:40;9.10;;;2.17;;
53903;SDS011;39812;52.430;16.936;2022-10-03T01:16:24;13.32;;;3.35;;
53903;SDS011;39812;52.430;16.936;2022-10-03T01:19:18;9.48;;;2.10;;
53903;SDS011;39812;52.430;16.936;2022-10-03T01:22:22;8.10;;;1.95;;
53903;SDS011;39812;52.430;16.936;2022-10-03T01:28:17;7.30;;;2.15;;
53903;SDS011;39812;52.430;16.936;2022-10-03T01:31:29;6.75;;;2.10;;
53903;SDS011;39812;52.430;16.936;2022-10-03T01:34:12;11.07;;;2.60;;
53903;SDS011;39812;52.430;16.936;2022-10-03T01:36:57;9.73;;;2.22;;
53903;SDS011;39812;52.430;16.936;2022-10-03T01:39:54;6.53;;;2.22;;
53903;SDS011;39812;52.430;16.936;2022-10-03T01:42:28;12.25;;;3.05;;
53903;SDS011;39812;52.430;16.936;2022-10-03T01:48:11;18.40;;;3.03;;
53903;SDS011;39812;52.430;16.936;2022-10-03T01:50:58;7.90;;;2.05;;
53903;SDS011;39812;52.430;16.936;2022-10-03T01:53:32;5.22;;;2.17;;
53903;SDS011;39812;52.430;16.936;2022-10-03T01:56:26;9.63;;;2.88;;
53903;SDS011;39812;52.430;16.936;2022-10-03T01:59:00;8.43;;;2.72;;
53903;SDS011;39812;52.430;16.936;2022-10-03T02:04:13;4.45;;;2.05;;
53903;SDS011;39812;52.430;16.936;2022-10-03T02:06:49;5.63;;;1.80;;
53903;SDS011;39812;52.430;16.936;2022-10-03T02:12:18;9.48;;;2.03;;
53903;SDS011;39812;52.430;16.936;2022-10-03T02:15:06;5.30;;;1.77;;
53903;SDS011;39812;52.430;16.936;2022-10-03T02:17:50;7.18;;;2.25;;
53903;SDS011;39812;52.430;16.936;2022-10-03T02:20:22;7.20;;;2.03;;
53903;SDS011;39812;52.430;16.936;2022-10-03T02:23:00;8.73;;;2.45;;
53903;SDS011;39812;52.430;16.936;2022-10-03T02:34:20;7.18;;;2.28;;
53903;SDS011;39812;52.430;16.936;2022-10-03T02:42:55;6.28;;;2.95;;
53903;SDS011;39812;52.430;16.936;2022-10-03T02:45:45;8.55;;;2.40;;
53903;SDS011;39812;52.430;16.936;2022-10-03T03:00:19;8.18;;;1.60;;
53903;SDS011;39812;52.430;16.936;2022-10-03T03:11:33;7.22;;;1.95;;
53903;SDS011;39812;52.430;16.936;2022-10-03T03:20:08;14.65;;;2.25;;
53903;SDS011;39812;52.430;16.936;2022-10-03T03:22:48;12.98;;;2.33;;
53903;SDS011;39812;52.430;16.936;2022-10-03T03:25:34;7.80;;;3.10;;
53903;SDS011;39812;52.430;16.936;2022-10-03T03:36:22;9.18;;;2.15;;
53903;SDS011;39812;52.430;16.936;2022-10-03T03:42:30;8.85;;;1.85;;
53903;SDS011;39812;52.430;16.936;2022-10-03T03:47:38;4.70;;;1.90;;
53903;SDS011;39812;52.430;16.936;2022-10-03T04:02:07;7.88;;;2.42;;
53903;SDS011;39812;52.430;16.936;2022-10-03T04:07:37;10.23;;;3.22;;
53903;SDS011;39812;52.430;16.936;2022-10-03T04:13:19;8.65;;;2.85;;
53903;SDS011;39812;52.430;16.936;2022-10-03T04:22:17;11.80;;;3.60;;
53903;SDS011;39812;52.430;16.936;2022-10-03T04:24:58;10.13;;;2.13;;
53903;SDS011;39812;52.430;16.936;2022-10-03T04:27:51;9.93;;;2.67;;
53903;SDS011;39812;52.430;16.936;2022-10-03T04:30:56;16.52;;;3.83;;
53903;SDS011;39812;52.430;16.936;2022-10-03T04:33:36;12.02;;;2.67;;
53903;SDS011;39812;52.430;16.936;2022-10-03T04:44:56;9.32;;;3.05;;
53903;SDS011;39812;52.430;16.936;2022-10-03T04:47:42;11.05;;;3.13;;
53903;SDS011;39812;52.430;16.936;2022-10-03T04:50:23;8.13;;;2.70;;
53903;SDS011;39812;52.430;16.936;2022-10-03T04:53:16;16.45;;;3.47;;
53903;SDS011;39812;52.430;16.936;2022-10-03T04:55:54;13.00;;;2.72;;
53903;SDS011;39812;52.430;16.936;2022-10-03T05:01:57;4.47;;;1.77;;
53903;SDS011;39812;52.430;16.936;2022-10-03T05:18:29;8.07;;;2.10;;
53903;SDS011;39812;52.430;16.936;2022-10-03T05:21:20;7.40;;;2.10;;
53903;SDS011;39812;52.430;16.936;2022-10-03T05:24:04;4.65;;;1.77;;
53903;SDS011;39812;52.430;16.936;2022-10-03T05:26:58;5.68;;;2.03;;
53903;SDS011;39812;52.430;16.936;2022-10-03T05:29:46;4.38;;;1.80;;
53903;SDS011;39812;52.430;16.936;2022-10-03T05:32:22;5.53;;;1.83;;
53903;SDS011;39812;52.430;16.936;2022-10-03T05:41:02;10.38;;;2.60;;
53903;SDS011;39812;52.430;16.936;2022-10-03T05:43:43;7.30;;;2.45;;
53903;SDS011;39812;52.430;16.936;2022-10-03T05:46:28;4.22;;;1.83;;
53903;SDS011;39812;52.430;16.936;2022-10-03T06:00:20;7.95;;;2.15;;
53903;SDS011;39812;52.430;16.936;2022-10-03T06:05:29;8.65;;;1.75;;
53903;SDS011;39812;52.430;16.936;2022-10-03T06:08:13;6.80;;;1.77;;
53903;SDS011;39812;52.430;16.936;2022-10-03T06:10:56;4.90;;;1.98;;
53903;SDS011;39812;52.430;16.936;2022-10-03T06:13:53;4.03;;;1.58;;
53903;SDS011;39812;52.430;16.936;2022-10-03T06:16:45;5.53;;;2.10;;
53903;SDS011;39812;52.430;16.936;2022-10-03T06:19:36;4.80;;;1.70;;
53903;SDS011;39812;52.430;16.936;2022-10-03T06:27:55;3.92;;;1.90;;
53903;SDS011;39812;52.430;16.936;2022-10-03T06:30:50;5.35;;;1.50;;
53903;SDS011;39812;52.430;16.936;2022-10-03T06:36:47;6.38;;;2.55;;
53903;SDS011;39812;52.430;16.936;2022-10-03T06:39:33;6.55;;;1.90;;
53903;SDS011;39812;52.430;16.936;2022-10-03T06:45:32;4.32;;;1.92;;
53903;SDS011;39812;52.430;16.936;2022-10-03T06:48:44;3.58;;;1.65;;
53903;SDS011;39812;52.430;16.936;2022-10-03T06:51:45;8.82;;;2.03;;
53903;SDS011;39812;52.430;16.936;2022-10-03T07:00:42;7.45;;;1.70;;
53903;SDS011;39812;52.430;16.936;2022-10-03T07:06:31;7.85;;;1.73;;
53903;SDS011;39812;52.430;16.936;2022-10-03T07:17:40;14.68;;;2.08;;
53903;SDS011;39812;52.430;16.936;2022-10-03T07:23:22;5.18;;;1.20;;
53903;SDS011;39812;52.430;16.936;2022-10-03T07:29:00;4.20;;;1.63;;
53903;SDS011;39812;52.430;16.936;2022-10-03T07:40:08;4.82;;;1.50;;
53903;SDS011;39812;52.430;16.936;2022-10-03T07:43:02;5.63;;;1.67;;
53903;SDS011;39812;52.430;16.936;2022-10-03T07:45:40;6.63;;;1.42;;
53903;SDS011;39812;52.430;16.936;2022-10-03T07:48:52;3.72;;;1.17;;
53903;SDS011;39812;52.430;16.936;2022-10-03T07:51:52;4.03;;;1.50;;
53903;SDS011;39812;52.430;16.936;2022-10-03T07:54:32;3.97;;;1.55;;
53903;SDS011;39812;52.430;16.936;2022-10-03T07:57:20;3.55;;;1.20;;
53903;SDS011;39812;52.430;16.936;2022-10-03T08:06:20;3.15;;;1.25;;
53903;SDS011;39812;52.430;16.936;2022-10-03T08:11:29;6.45;;;2.03;;
53903;SDS011;39812;52.430;16.936;2022-10-03T08:14:25;5.88;;;1.80;;
53903;SDS011;39812;52.430;16.936;2022-10-03T08:17:25;4.00;;;1.50;;
53903;SDS011;39812;52.430;16.936;2022-10-03T08:22:34;3.65;;;1.60;;
53903;SDS011;39812;52.430;16.936;2022-10-03T08:25:29;7.15;;;1.58;;
53903;SDS011;39812;52.430;16.936;2022-10-03T08:28:33;6.18;;;1.55;;
53903;SDS011;39812;52.430;16.936;2022-10-03T08:35:32;3.60;;;1.38;;
53903;SDS011;39812;52.430;16.936;2022-10-03T08:37:32;4.03;;;1.38;;
53903;SDS011;39812;52.430;16.936;2022-10-03T08:46:45;4.93;;;1.23;;
53903;SDS011;39812;52.430;16.936;2022-10-03T08:51:44;8.23;;;1.48;;
53903;SDS011;39812;52.430;16.936;2022-10-03T08:54:27;5.05;;;1.25;;
53903;SDS011;39812;52.430;16.936;2022-10-03T08:57:04;3.80;;;1.35;;
53903;SDS011;39812;52.430;16.936;2022-10-03T08:59:55;5.13;;;1.60;;
53903;SDS011;39812;52.430;16.936;2022-10-03T09:05:19;4.45;;;1.35;;
53903;SDS011;39812;52.430;16.936;2022-10-03T09:19:38;3.00;;;1.40;;
53903;SDS011;39812;52.430;16.936;2022-10-03T09:28:00;6.03;;;1.90;;
53903;SDS011;39812;52.430;16.936;2022-10-03T09:30:58;2.92;;;1.20;;
53903;SDS011;39812;52.430;16.936;2022-10-03T09:39:52;2.75;;;1.30;;
53903;SDS011;39812;52.430;16.936;2022-10-03T09:45:24;3.85;;;1.42;;
53903;SDS011;39812;52.430;16.936;2022-10-03T09:56:47;3.77;;;1.70;;
53903;SDS011;39812;52.430;16.936;2022-10-03T10:02:48;6.90;;;1.88;;
53903;SDS011;39812;52.430;16.936;2022-10-03T10:06:02;3.45;;;1.35;;
53903;SDS011;39812;52.430;16.936;2022-10-03T10:08:55;3.78;;;1.63;;
53903;SDS011;39812;52.430;16.936;2022-10-03T10:14:35;6.25;;;2.13;;
53903;SDS011;39812;52.430;16.936;2022-10-03T10:20:50;3.88;;;1.38;;
53903;SDS011;39812;52.430;16.936;2022-10-03T10:41:34;3.17;;;1.20;;
53903;SDS011;39812;52.430;16.936;2022-10-03T10:44:27;3.92;;;1.23;;
53903;SDS011;39812;52.430;16.936;2022-10-03T10:52:39;2.85;;;1.25;;
53903;SDS011;39812;52.430;16.936;2022-10-03T10:58:23;2.97;;;1.63;;
53903;SDS011;39812;52.430;16.936;2022-10-03T11:04:20;1.50;;;0.98;;
53903;SDS011;39812;52.430;16.936;2022-10-03T11:10:13;1.85;;;0.80;;
53903;SDS011;39812;52.430;16.936;2022-10-03T11:21:10;2.83;;;1.15;;
53903;SDS011;39812;52.430;16.936;2022-10-03T11:24:19;2.00;;;0.90;;
53903;SDS011;39812;52.430;16.936;2022-10-03T11:30:17;3.03;;;1.08;;
53903;SDS011;39812;52.430;16.936;2022-10-03T11:33:11;2.83;;;1.38;;
53903;SDS011;39812;52.430;16.936;2022-10-03T11:38:50;2.90;;;1.42;;
53903;SDS011;39812;52.430;16.936;2022-10-03T11:41:46;4.28;;;1.30;;
53903;SDS011;39812;52.430;16.936;2022-10-03T11:44:29;3.17;;;1.42;;
53903;SDS011;39812;52.430;16.936;2022-10-03T11:52:26;4.13;;;1.50;;
53903;SDS011;39812;52.430;16.936;2022-10-03T12:00:45;3.63;;;1.48;;
53903;SDS011;39812;52.430;16.936;2022-10-03T12:03:23;5.00;;;1.73;;
53903;SDS011;39812;52.430;16.936;2022-10-03T12:11:36;2.75;;;1.40;;
53903;SDS011;39812;52.430;16.936;2022-10-03T12:15:01;3.67;;;1.80;;
53903;SDS011;39812;52.430;16.936;2022-10-03T12:17:27;2.35;;;1.23;;
53903;SDS011;39812;52.430;16.936;2022-10-03T12:20:04;3.50;;;1.50;;
53903;SDS011;39812;52.430;16.936;2022-10-03T12:25:35;3.80;;;1.88;;
53903;SDS011;39812;52.430;16.936;2022-10-03T12:28:21;3.65;;;1.58;;
53903;SDS011;39812;52.430;16.936;2022-10-03T12:31:02;3.90;;;1.45;;
53903;SDS011;39812;52.430;16.936;2022-10-03T12:33:50;3.10;;;1.27;;
53903;SDS011;39812;52.430;16.936;2022-10-03T12:36:33;3.50;;;1.33;;
53903;SDS011;39812;52.430;16.936;2022-10-03T12:39:29;3.80;;;1.60;;
53903;SDS011;39812;52.430;16.936;2022-10-03T12:47:38;4.57;;;1.35;;
53903;SDS011;39812;52.430;16.936;2022-10-03T12:50:34;2.33;;;1.05;;
53903;SDS011;39812;52.430;16.936;2022-10-03T12:55:46;3.75;;;1.23;;
53903;SDS011;39812;52.430;16.936;2022-10-03T13:03:51;3.78;;;1.38;;
53903;SDS011;39812;52.430;16.936;2022-10-03T13:06:40;5.70;;;1.30;;
53903;SDS011;39812;52.430;16.936;2022-10-03T13:09:17;10.05;;;1.45;;
53903;SDS011;39812;52.430;16.936;2022-10-03T13:12:07;4.20;;;1.20;;
53903;SDS011;39812;52.430;16.936;2022-10-03T13:17:58;2.67;;;1.02;;
53903;SDS011;39812;52.430;16.936;2022-10-03T13:20:37;4.50;;;0.70;;
53903;SDS011;39812;52.430;16.936;2022-10-03T13:26:40;3.20;;;0.85;;
53903;SDS011;39812;52.430;16.936;2022-10-03T13:29:28;5.15;;;1.27;;
53903;SDS011;39812;52.430;16.936;2022-10-03T13:32:11;4.20;;;0.90;;
53903;SDS011;39812;52.430;16.936;2022-10-03T13:41:04;4.38;;;1.00;;
53903;SDS011;39812;52.430;16.936;2022-10-03T13:43:38;5.20;;;1.40;;
53903;SDS011;39812;52.430;16.936;2022-10-03T13:46:28;3.08;;;0.90;;
53903;SDS011;39812;52.430;16.936;2022-10-03T13:49:02;2.85;;;0.75;;
53903;SDS011;39812;52.430;16.936;2022-10-03T13:51:40;4.45;;;1.02;;
53903;SDS011;39812;52.430;16.936;2022-10-03T13:54:17;3.45;;;0.98;;
53903;SDS011;39812;52.430;16.936;2022-10-03T13:57:11;4.78;;;1.23;;
53903;SDS011;39812;52.430;16.936;2022-10-03T13:59:47;4.43;;;1.35;;
53903;SDS011;39812;52.430;16.936;2022-10-03T14:02:22;3.25;;;1.05;;
53903;SDS011;39812;52.430;16.936;2022-10-03T14:08:17;6.40;;;0.95;;
53903;SDS011;39812;52.430;16.936;2022-10-03T14:14:10;6.03;;;1.13;;
53903;SDS011;39812;52.430;16.936;2022-10-03T14:17:06;6.22;;;1.60;;
53903;SDS011;39812;52.430;16.936;2022-10-03T14:19:36;6.97;;;1.10;;
53903;SDS011;39812;52.430;16.936;2022-10-03T14:25:14;5.85;;;1.17;;
53903;SDS011;39812;52.430;16.936;2022-10-03T14:27:56;3.90;;;1.00;;
53903;SDS011;39812;52.430;16.936;2022-10-03T14:30:28;3.45;;;1.10;;
53903;SDS011;39812;52.430;16.936;2022-10-03T14:33:11;8.63;;;1.05;;
53903;SDS011;39812;52.430;16.936;2022-10-03T14:38:44;4.22;;;1.35;;
53903;SDS011;39812;52.430;16.936;2022-10-03T14:41:54;6.55;;;1.05;;
53903;SDS011;39812;52.430;16.936;2022-10-03T14:44:16;3.35;;;1.13;;
53903;SDS011;39812;52.430;16.936;2022-10-03T14:46:46;4.57;;;1.40;;
53903;SDS011;39812;52.430;16.936;2022-10-03T14:49:18;2.83;;;1.20;;
53903;SDS011;39812;52.430;16.936;2022-10-03T14:51:50;7.25;;;1.98;;
53903;SDS011;39812;52.430;16.936;2022-10-03T14:54:25;6.10;;;1.15;;
53903;SDS011;39812;52.430;16.936;2022-10-03T14:56:52;4.80;;;1.50;;
53903;SDS011;39812;52.430;16.936;2022-10-03T14:59:28;4.07;;;1.30;;
53903;SDS011;39812;52.430;16.936;2022-10-03T15:02:00;3.40;;;1.30;;
53903;SDS011;39812;52.430;16.936;2022-10-03T15:04:46;4.05;;;1.70;;
53903;SDS011;39812;52.430;16.936;2022-10-03T15:07:14;5.60;;;1.73;;
53903;SDS011;39812;52.430;16.936;2022-10-03T15:14:43;3.55;;;1.45;;
53903;SDS011;39812;52.430;16.936;2022-10-03T15:17:17;4.97;;;1.70;;
53903;SDS011;39812;52.430;16.936;2022-10-03T15:19:53;3.92;;;1.02;;
53903;SDS011;39812;52.430;16.936;2022-10-03T15:22:54;4.22;;;1.50;;
53903;SDS011;39812;52.430;16.936;2022-10-03T15:25:16;5.53;;;1.55;;
53903;SDS011;39812;52.430;16.936;2022-10-03T15:27:45;4.95;;;1.40;;
53903;SDS011;39812;52.430;16.936;2022-10-03T15:30:19;7.53;;;2.15;;
53903;SDS011;39812;52.430;16.936;2022-10-03T15:32:47;7.65;;;1.77;;
53903;SDS011;39812;52.430;16.936;2022-10-03T15:35:18;6.53;;;1.55;;
53903;SDS011;39812;52.430;16.936;2022-10-03T15:37:53;6.43;;;2.40;;
53903;SDS011;39812;52.430;16.936;2022-10-03T15:40:28;3.85;;;1.48;;
53903;SDS011;39812;52.430;16.936;2022-10-03T15:43:01;4.65;;;1.88;;
53903;SDS011;39812;52.430;16.936;2022-10-03T15:45:41;8.60;;;1.70;;
53903;SDS011;39812;52.430;16.936;2022-10-03T15:48:11;8.30;;;2.10;;
53903;SDS011;39812;52.430;16.936;2022-10-03T15:50:43;4.25;;;1.70;;
53903;SDS011;39812;52.430;16.936;2022-10-03T15:53:21;8.02;;;2.25;;
53903;SDS011;39812;52.430;16.936;2022-10-03T15:58:44;7.47;;;2.10;;
53903;SDS011;39812;52.430;16.936;2022-10-03T16:01:32;6.10;;;1.88;;
53903;SDS011;39812;52.430;16.936;2022-10-03T16:04:06;7.60;;;2.13;;
53903;SDS011;39812;52.430;16.936;2022-10-03T16:15:25;6.45;;;1.83;;
53903;SDS011;39812;52.430;16.936;2022-10-03T16:21:02;7.93;;;1.40;;
53903;SDS011;39812;52.430;16.936;2022-10-03T16:23:33;7.07;;;1.92;;
53903;SDS011;39812;52.430;16.936;2022-10-03T16:26:03;5.35;;;1.77;;
53903;SDS011;39812;52.430;16.936;2022-10-03T16:28:46;4.90;;;1.60;;
53903;SDS011;39812;52.430;16.936;2022-10-03T16:31:38;5.63;;;1.85;;
53903;SDS011;39812;52.430;16.936;2022-10-03T16:34:19;7.82;;;2.40;;
53903;SDS011;39812;52.430;16.936;2022-10-03T16:36:49;6.95;;;2.13;;
53903;SDS011;39812;52.430;16.936;2022-10-03T16:39:24;5.78;;;1.70;;
53903;SDS011;39812;52.430;16.936;2022-10-03T16:41:54;5.78;;;1.60;;
53903;SDS011;39812;52.430;16.936;2022-10-03T16:44:38;4.40;;;1.83;;
53903;SDS011;39812;52.430;16.936;2022-10-03T16:47:14;4.88;;;1.58;;
53903;SDS011;39812;52.430;16.936;2022-10-03T16:49:42;9.73;;;2.15;;
53903;SDS011;39812;52.430;16.936;2022-10-03T16:52:32;6.38;;;2.10;;
53903;SDS011;39812;52.430;16.936;2022-10-03T16:55:25;8.15;;;2.17;;
53903;SDS011;39812;52.430;16.936;2022-10-03T16:58:09;5.97;;;2.05;;
53903;SDS011;39812;52.430;16.936;2022-10-03T17:00:52;9.52;;;2.47;;
53903;SDS011;39812;52.430;16.936;2022-10-03T17:03:24;4.97;;;2.33;;
53903;SDS011;39812;52.430;16.936;2022-10-03T17:05:54;10.05;;;3.42;;
53903;SDS011;39812;52.430;16.936;2022-10-03T17:08:24;11.57;;;3.53;;
53903;SDS011;39812;52.430;16.936;2022-10-03T17:10:55;5.45;;;2.33;;
53903;SDS011;39812;52.430;16.936;2022-10-03T17:13:37;5.97;;;2.47;;
53903;SDS011;39812;52.430;16.936;2022-10-03T17:16:53;7.53;;;2.63;;
53903;SDS011;39812;52.430;16.936;2022-10-03T17:19:12;4.65;;;2.28;;
53903;SDS011;39812;52.430;16.936;2022-10-03T17:21:53;8.90;;;2.58;;
53903;SDS011;39812;52.430;16.936;2022-10-03T17:24:32;5.15;;;2.50;;
53903;SDS011;39812;52.430;16.936;2022-10-03T17:27:19;7.72;;;2.35;;
53903;SDS011;39812;52.430;16.936;2022-10-03T17:29:58;8.30;;;2.28;;
53903;SDS011;39812;52.430;16.936;2022-10-03T17:35:19;8.70;;;2.30;;
53903;SDS011;39812;52.430;16.936;2022-10-03T17:38:01;10.90;;;2.72;;
53903;SDS011;39812;52.430;16.936;2022-10-03T17:43:22;8.38;;;2.65;;
53903;SDS011;39812;52.430;16.936;2022-10-03T17:51:39;7.57;;;3.05;;
53903;SDS011;39812;52.430;16.936;2022-10-03T17:57:12;12.80;;;3.63;;
53903;SDS011;39812;52.430;16.936;2022-10-03T17:59:51;6.40;;;2.58;;
53903;SDS011;39812;52.430;16.936;2022-10-03T18:02:28;9.52;;;3.45;;
53903;SDS011;39812;52.430;16.936;2022-10-03T18:07:33;8.85;;;3.05;;
53903;SDS011;39812;52.430;16.936;2022-10-03T18:10:00;9.63;;;4.05;;
53903;SDS011;39812;52.430;16.936;2022-10-03T18:12:31;6.40;;;3.40;;
53903;SDS011;39812;52.430;16.936;2022-10-03T18:23:32;8.98;;;3.13;;
53903;SDS011;39812;52.430;16.936;2022-10-03T18:26:13;7.65;;;2.50;;
53903;SDS011;39812;52.430;16.936;2022-10-03T18:28:57;9.07;;;3.25;;
53903;SDS011;39812;52.430;16.936;2022-10-03T18:31:38;9.93;;;3.15;;
53903;SDS011;39812;52.430;16.936;2022-10-03T18:34:13;7.40;;;2.80;;
53903;SDS011;39812;52.430;16.936;2022-10-03T18:36:48;5.80;;;2.42;;
53903;SDS011;39812;52.430;16.936;2022-10-03T18:39:30;7.18;;;3.00;;
53903;SDS011;39812;52.430;16.936;2022-10-03T18:42:00;8.63;;;2.30;;
53903;SDS011;39812;52.430;16.936;2022-10-03T18:44:27;5.78;;;2.38;;
53903;SDS011;39812;52.430;16.936;2022-10-03T18:47:14;9.32;;;2.97;;
53903;SDS011;39812;52.430;16.936;2022-10-03T18:49:52;8.43;;;2.60;;
53903;SDS011;39812;52.430;16.936;2022-10-03T18:52:41;10.50;;;2.53;;
53903;SDS011;39812;52.430;16.936;2022-10-03T18:55:16;5.50;;;2.40;;
53903;SDS011;39812;52.430;16.936;2022-10-03T18:58:26;12.77;;;3.42;;
53903;SDS011;39812;52.430;16.936;2022-10-03T19:00:50;7.68;;;2.50;;
53903;SDS011;39812;52.430;16.936;2022-10-03T19:03:34;7.55;;;3.63;;
53903;SDS011;39812;52.430;16.936;2022-10-03T19:06:27;15.07;;;2.78;;
53903;SDS011;39812;52.430;16.936;2022-10-03T19:12:14;11.88;;;2.70;;
53903;SDS011;39812;52.430;16.936;2022-10-03T19:17:50;8.75;;;2.78;;
53903;SDS011;39812;52.430;16.936;2022-10-03T19:20:38;7.68;;;2.60;;
53903;SDS011;39812;52.430;16.936;2022-10-03T19:23:10;6.65;;;2.70;;
53903;SDS011;39812;52.430;16.936;2022-10-03T19:25:40;6.82;;;2.60;;
53903;SDS011;39812;52.430;16.936;2022-10-03T19:28:24;9.77;;;3.10;;
53903;SDS011;39812;52.430;16.936;2022-10-03T19:30:57;9.38;;;2.88;;
53903;SDS011;39812;52.430;16.936;2022-10-03T19:33:44;11.43;;;3.25;;
53903;SDS011;39812;52.430;16.936;2022-10-03T19:36:21;8.75;;;2.90;;
53903;SDS011;39812;52.430;16.936;2022-10-03T19:38:50;10.65;;;2.92;;
53903;SDS011;39812;52.430;16.936;2022-10-03T19:44:04;8.75;;;2.90;;
53903;SDS011;39812;52.430;16.936;2022-10-03T19:46:46;9.10;;;2.78;;
53903;SDS011;39812;52.430;16.936;2022-10-03T19:49:40;8.68;;;2.53;;
53903;SDS011;39812;52.430;16.936;2022-10-03T19:52:44;8.73;;;2.97;;
53903;SDS011;39812;52.430;16.936;2022-10-03T19:55:11;11.18;;;2.55;;
53903;SDS011;39812;52.430;16.936;2022-10-03T19:57:39;10.75;;;3.13;;
53903;SDS011;39812;52.430;16.936;2022-10-03T20:00:28;8.60;;;2.58;;
53903;SDS011;39812;52.430;16.936;2022-10-03T20:05:47;12.65;;;2.40;;
53903;SDS011;39812;52.430;16.936;2022-10-03T20:14:03;12.10;;;2.35;;
53903;SDS011;39812;52.430;16.936;2022-10-03T20:16:30;9.55;;;2.45;;
53903;SDS011;39812;52.430;16.936;2022-10-03T20:19:06;6.30;;;2.17;;
53903;SDS011;39812;52.430;16.936;2022-10-03T20:21:35;4.47;;;1.75;;
53903;SDS011;39812;52.430;16.936;2022-10-03T20:24:02;10.38;;;2.65;;
53903;SDS011;39812;52.430;16.936;2022-10-03T20:26:48;13.63;;;2.60;;
53903;SDS011;39812;52.430;16.936;2022-10-03T20:32:53;4.15;;;1.85;;
53903;SDS011;39812;52.430;16.936;2022-10-03T20:35:35;11.65;;;2.65;;
53903;SDS011;39812;52.430;16.936;2022-10-03T20:38:20;8.63;;;2.45;;
53903;SDS011;39812;52.430;16.936;2022-10-03T20:40:59;8.77;;;2.03;;
53903;SDS011;39812;52.430;16.936;2022-10-03T20:43:43;8.77;;;2.42;;
53903;SDS011;39812;52.430;16.936;2022-10-03T20:46:19;5.35;;;2.08;;
53903;SDS011;39812;52.430;16.936;2022-10-03T20:54:17;9.32;;;2.30;;
53903;SDS011;39812;52.430;16.936;2022-10-03T20:56:52;14.52;;;3.53;;
53903;SDS011;39812;52.430;16.936;2022-10-03T20:59:44;8.93;;;2.50;;
53903;SDS011;39812;52.430;16.936;2022-10-03T21:02:44;9.75;;;2.58;;
53903;SDS011;39812;52.430;16.936;2022-10-03T21:08:22;7.57;;;2.00;;
53903;SDS011;39812;52.430;16.936;2022-10-03T21:10:58;9.02;;;2.50;;
53903;SDS011;39812;52.430;16.936;2022-10-03T21:16:19;11.32;;;2.83;;
53903;SDS011;39812;52.430;16.936;2022-10-03T21:18:48;8.68;;;2.20;;
53903;SDS011;39812;52.430;16.936;2022-10-03T21:27:17;10.20;;;2.17;;
53903;SDS011;39812;52.430;16.936;2022-10-03T21:29:29;10.82;;;2.80;;
53903;SDS011;39812;52.430;16.936;2022-10-03T21:32:03;8.32;;;1.80;;
53903;SDS011;39812;52.430;16.936;2022-10-03T21:34:57;11.25;;;3.10;;
53903;SDS011;39812;52.430;16.936;2022-10-03T21:43:10;8.85;;;1.73;;
53903;SDS011;39812;52.430;16.936;2022-10-03T21:45:53;13.68;;;2.28;;
53903;SDS011;39812;52.430;16.936;2022-10-03T21:48:56;12.00;;;2.30;;
53903;SDS011;39812;52.430;16.936;2022-10-03T21:51:58;9.98;;;2.28;;
53903;SDS011;39812;52.430;16.936;2022-10-03T21:54:29;11.77;;;2.40;;
53903;SDS011;39812;52.430;16.936;2022-10-03T21:59:57;8.30;;;2.28;;
53903;SDS011;39812;52.430;16.936;2022-10-03T22:02:38;9.63;;;1.92;;
53903;SDS011;39812;52.430;16.936;2022-10-03T22:05:14;7.45;;;1.83;;
53903;SDS011;39812;52.430;16.936;2022-10-03T22:08:21;5.47;;;1.17;;
53903;SDS011;39812;52.430;16.936;2022-10-03T22:10:56;12.23;;;2.40;;
53903;SDS011;39812;52.430;16.936;2022-10-03T22:13:24;6.93;;;2.03;;
53903;SDS011;39812;52.430;16.936;2022-10-03T22:16:37;5.53;;;1.88;;
53903;SDS011;39812;52.430;16.936;2022-10-03T22:19:07;10.98;;;1.80;;
53903;SDS011;39812;52.430;16.936;2022-10-03T22:21:41;9.95;;;1.98;;
53903;SDS011;39812;52.430;16.936;2022-10-03T22:27:28;11.25;;;2.08;;
53903;SDS011;39812;52.430;16.936;2022-10-03T22:30:06;8.25;;;2.03;;
53903;SDS011;39812;52.430;16.936;2022-10-03T22:38:15;10.88;;;1.98;;
53903;SDS011;39812;52.430;16.936;2022-10-03T22:40:43;6.88;;;1.67;;
53903;SDS011;39812;52.430;16.936;2022-10-03T22:43:11;8.25;;;1.67;;
53903;SDS011;39812;52.430;16.936;2022-10-03T22:45:39;5.82;;;1.95;;
53903;SDS011;39812;52.430;16.936;2022-10-03T22:48:14;10.43;;;2.05;;
53903;SDS011;39812;52.430;16.936;2022-10-03T22:50:49;12.48;;;2.55;;
53903;SDS011;39812;52.430;16.936;2022-10-03T22:53:17;9.68;;;2.97;;
53903;SDS011;39812;52.430;16.936;2022-10-03T22:55:47;10.23;;;1.80;;
53903;SDS011;39812;52.430;16.936;2022-10-03T22:58:17;6.25;;;3.03;;
53903;SDS011;39812;52.430;16.936;2022-10-03T23:00:43;9.32;;;2.45;;
53903;SDS011;39812;52.430;16.936;2022-10-03T23:03:13;12.27;;;2.00;;
53903;SDS011;39812;52.430;16.936;2022-10-03T23:08:40;10.30;;;1.73;;
53903;SDS011;39812;52.430;16.936;2022-10-03T23:11:19;16.67;;;2.42;;
53903;SDS011;39812;52.430;16.936;2022-10-03T23:13:47;8.95;;;2.08;;
53903;SDS011;39812;52.430;16.936;2022-10-03T23:21:57;9.30;;;2.28;;
53903;SDS011;39812;52.430;16.936;2022-10-03T23:24:28;10.70;;;1.98;;
53903;SDS011;39812;52.430;16.936;2022-10-03T23:37:41;11.45;;;2.38;;
53903;SDS011;39812;52.430;16.936;2022-10-03T23:40:16;10.38;;;2.38;;
53903;SDS011;39812;52.430;16.936;2022-10-03T23:42:56;10.43;;;1.80;;
53903;SDS011;39812;52.430;16.936;2022-10-03T23:45:28;8.95;;;2.05;;
53903;SDS011;39812;52.430;16.936;2022-10-03T23:48:04;13.88;;;2.65;;
53903;SDS011;39812;52.430;16.936;2022-10-03T23:50:36;10.35;;;1.65;;
53903;SDS011;39812;52.430;16.936;2022-10-03T23:53:28;13.00;;;1.88;;
53903;SDS011;39812;52.430;16.936;2022-10-03T23:55:58;10.30;;;2.13;;
53903;SDS011;39812;52.430;16.936;2022-10-03T23:58:27;11.38;;;2.35;;
